Zeeland, MI (49464)

4:27 AM EST on January 20, 2017 (GMT -0500)
| | Change Station
Active Advisory: Flood Warning

Elev -9999 ft 0.00 °N, 0.00 °E | Updated 3 minutes ago

Rain
Rain
°F
Feels Like °F
N
Wind Variable Wind from North
Gusts mph

Today
High -- | Low -- °F
--% Chance of Precip.
Yesterday
High -- | Low -- °F
Precip. -- in
Pressure 29.70 in
Visibility -9999.0 miles
Clouds Few 500 ft
Overcast 4800 ft
Dew Point Not available.
Humidity Not available.
Rainfall --
Snow Depth Not available.
8:08 AM 5:41 PM
Last Quarter, 46% visible
SPECI KBIV 200906Z AUTO 07006KT -RA FEW005 OVC048 03/01 A2970 RMK AO2 P0001 T00280011 $
Pressure 29.70 in
Visibility -9999.0 miles
Clouds Few 500 ft
Overcast 4800 ft
Dew Point Not available.
Humidity Not available.
Rainfall --
Snow Depth Not available.
8:08 AM 5:41 PM
Last Quarter, 46% visible
SPECI KBIV 200906Z AUTO 07006KT -RA FEW005 OVC048 03/01 A2970 RMK AO2 P0001 T00280011 $

Get Your Daily Forecast Email!

Thanks for signing up!

Be on the lookout for a verification email in your inbox.

You'll start receiving the daily forecast at 8 AM.

×

10-Day Weather Forecast

Almanac

Astronomy

Jan. 20, 2017 Rise Set
Actual Time
Civil Twilight
Nautical Twilight
Astronomical Twilight
Moon
Length of Visible Light
Length of Day
Tomorrow will be .
, % of the Moon is Illuminated

Today's Extremes

State Highs State Lows

Community

WunderPhotos

Upload Photos

1,962,540 photos uploaded!

WunderBlog® & News

Nearby

Air Quality

  Air Quality AQ Index Pollutant
Not available.

Snow Depth

Station Depth Elevation

Earthquake Activity

City Distance Mag. Time & Date
Minimum magnitude displayed is 2.5.

Coastal Water Temperatures

Place Temperature

Stations

Nearby Weather Stations

Station Location Temp. Windchill Dew Point Humidity Wind Precip. Elev Updated Type
                   

Watches & Warnings

Flood Warning
Issued: 9:15 PM EST Jan. 19, 2017 – National Weather Service

The Flood Warning continues for
the Grand River at Robinson township.
* Until further notice.
* At 4:21 PM Thursday the stage was 13.9 feet.
* Flood stage is 13.3 feet.
* Minor flooding is occurring and minor flooding is forecast.
* Forecast, the river will continue rising to near 14.0 feet by after
midnight tonight and remain nearly steady.
Ice in the river could cause fluctations in The
Levels.
* Impact, at 13.9 feet... several homes in vanlopik subdivision are
surrounded by water.
* Flood history, this crest compares to a previous crest of 14.2 feet
on Jan 16 2016.


Lat... Lon 4300 8610 4297 8595 4291 8589 4297 8583
      4304 8591 4307 8610